Time;durP1;ratioP1;P1;durP2;ratioP2;P2;SDS_P1;SDS_P2;PMS_P1;PMS_P2;Temp;Humidity;BMP_temperature;BMP_pressure;BME280_temperature;BME280_humidity;BME280_pressure;Samples;Min_cycle;Max_cycle;Signal;HPM_P1;HPM_P2
2021/07/26 00:02:17;;;;;;;22.20;9.08;;;;;;;20.34;61.49;101129.41;1779019;80;21172;-59
2021/07/26 00:05:22;;;;;;;15.38;8.38;;;;;;;20.34;60.92;101131.36;1779059;80;21179;-60
2021/07/26 00:08:27;;;;;;;15.53;8.65;;;;;;;20.33;60.57;101134.67;1778966;80;21871;-60
2021/07/26 00:11:34;;;;;;;16.37;8.40;;;;;;;20.31;60.17;101130.42;1778808;80;21504;-60
2021/07/26 00:14:40;;;;;;;14.80;7.75;;;;;;;20.30;60.31;101139.81;1778868;80;21737;-60
2021/07/26 00:17:46;;;;;;;14.93;8.80;;;;;;;20.31;59.80;101132.64;1778961;80;21149;-59
2021/07/26 00:20:53;;;;;;;16.00;8.73;;;;;;;20.32;59.46;101135.76;1778497;80;21172;-59
2021/07/26 00:23:59;;;;;;;16.90;8.90;;;;;;;20.35;59.22;101137.23;1778856;80;21149;-60
2021/07/26 00:27:04;;;;;;;18.07;8.25;;;;;;;20.37;58.87;101129.00;1778973;80;21196;-60
2021/07/26 00:30:11;;;;;;;18.10;7.78;;;;;;;20.39;58.43;101136.56;1778939;80;21204;-59
2021/07/26 00:37:08;;;;;;;16.60;9.35;;;;;;;20.39;57.83;101141.30;1728008;82;21217;-60
2021/07/26 00:40:16;;;;;;;13.25;8.20;;;;;;;20.38;57.73;101136.78;1727466;83;21924;-60
2021/07/26 00:43:22;;;;;;;14.90;8.10;;;;;;;20.33;57.61;101139.37;1727551;83;21239;-60
2021/07/26 00:46:28;;;;;;;11.68;7.47;;;;;;;20.29;57.71;101140.91;1727481;83;21386;-60
2021/07/26 00:49:33;;;;;;;14.87;8.23;;;;;;;20.29;57.61;101140.91;1727473;83;21189;-60
2021/07/26 00:52:39;;;;;;;11.05;7.42;;;;;;;20.28;57.38;101143.38;1727455;83;21351;-59
2021/07/26 00:55:46;;;;;;;11.83;7.83;;;;;;;20.28;57.39;101143.38;1727499;83;21236;-60
2021/07/26 00:58:51;;;;;;;13.95;8.20;;;;;;;20.21;57.55;101150.88;1727607;83;21414;-60
2021/07/26 01:01:57;;;;;;;13.38;8.40;;;;;;;20.18;58.03;101150.80;1727523;83;21367;-59
2021/07/26 01:05:04;;;;;;;20.05;8.15;;;;;;;20.17;58.20;101152.41;1727357;83;21209;-59
2021/07/26 01:08:09;;;;;;;13.15;8.18;;;;;;;20.16;58.54;101149.29;1729773;83;21240;-59
2021/07/26 01:11:15;;;;;;;20.23;7.65;;;;;;;20.15;58.19;101151.77;1727393;83;21374;-59
2021/07/26 01:14:22;;;;;;;14.90;7.80;;;;;;;20.14;58.04;101147.25;1727525;83;21395;-59
2021/07/26 01:17:57;;;;;;;11.75;7.67;;;;;;;20.15;58.35;101143.42;1727417;83;21364;-60
2021/07/26 01:21:10;;;;;;;13.48;8.18;;;;;;;20.13;58.61;101148.30;1721633;82;21387;-59
2021/07/26 01:24:16;;;;;;;13.95;8.05;;;;;;;20.07;59.42;101147.27;1727464;83;21856;-60
2021/07/26 01:27:21;;;;;;;13.30;7.53;;;;;;;19.98;59.99;101146.34;1727379;83;21398;-60
2021/07/26 01:30:26;;;;;;;16.62;8.28;;;;;;;19.92;60.08;101148.58;1727299;83;21213;-60
2021/07/26 01:33:33;;;;;;;15.58;8.80;;;;;;;19.89;60.34;101155.44;1727258;83;21375;-59
2021/07/26 01:36:40;;;;;;;16.48;8.25;;;;;;;19.84;60.71;101155.23;1732662;82;21205;-59
2021/07/26 01:39:45;;;;;;;16.80;8.65;;;;;;;19.80;60.98;101162.31;1741817;82;21236;-59
2021/07/26 01:43:00;;;;;;;16.12;7.85;;;;;;;19.75;60.98;101157.06;1741612;82;21232;-59
2021/07/26 01:46:26;;;;;;;14.63;8.40;;;;;;;19.69;61.21;101156.03;1741843;82;21425;-59
2021/07/26 01:50:04;;;;;;;16.40;8.33;;;;;;;19.65;61.56;101159.42;1741684;82;21354;-60
2021/07/26 01:53:09;;;;;;;15.63;8.18;;;;;;;19.60;62.14;101163.41;1741832;82;21855;-59
2021/07/26 01:56:15;;;;;;;13.35;8.45;;;;;;;19.54;61.96;101160.95;1736417;82;21234;-59
2021/07/26 01:59:20;;;;;;;15.80;8.28;;;;;;;19.55;61.58;101158.47;1736295;82;21393;-59
2021/07/26 02:02:26;;;;;;;13.35;7.62;;;;;;;19.59;61.55;101164.46;1736255;82;21351;-60
2021/07/26 02:05:32;;;;;;;19.87;8.60;;;;;;;19.60;61.04;101167.58;1736161;82;21409;-59
2021/07/26 02:08:37;;;;;;;15.30;8.20;;;;;;;19.61;60.91;101170.14;1736230;82;21761;-61
2021/07/26 02:11:43;;;;;;;20.20;8.13;;;;;;;19.64;61.03;101175.27;1741399;82;21930;-59
2021/07/26 02:14:49;;;;;;;15.15;8.18;;;;;;;19.65;61.01;101174.70;1741790;82;21347;-59
2021/07/26 02:17:55;;;;;;;21.70;8.65;;;;;;;19.63;61.41;101174.92;1741865;82;21196;-60
2021/07/26 02:21:00;;;;;;;13.22;7.78;;;;;;;19.59;61.64;101172.80;1741731;82;21386;-60
2021/07/26 02:24:07;;;;;;;16.73;8.33;;;;;;;19.53;62.07;101181.47;1741767;82;21953;-60
2021/07/26 02:27:15;;;;;;;14.70;8.03;;;;;;;19.53;61.74;101181.99;1741831;82;21213;-60
2021/07/26 02:30:20;;;;;;;15.53;8.25;;;;;;;19.54;61.45;101183.16;1741754;82;21891;-59
2021/07/26 02:33:25;;;;;;;14.20;8.28;;;;;;;19.56;61.64;101178.26;1741713;82;21328;-59
2021/07/26 02:36:32;;;;;;;14.95;8.00;;;;;;;19.56;61.77;101188.51;1741567;82;21876;-59
2021/07/26 02:39:38;;;;;;;14.23;8.43;;;;;;;19.55;61.40;101186.25;1702376;84;21220;-59
2021/07/26 02:42:43;;;;;;;17.80;8.45;;;;;;;19.54;61.52;101184.55;1708822;83;21326;-60
2021/07/26 02:45:48;;;;;;;19.73;8.43;;;;;;;19.55;61.82;101185.42;1709522;83;21387;-60
2021/07/26 02:48:54;;;;;;;16.62;7.72;;;;;;;19.57;62.16;101191.06;1720252;83;21355;-59
2021/07/26 02:51:59;;;;;;;16.60;8.33;;;;;;;19.54;61.34;101185.94;1733367;83;21355;-60
2021/07/26 02:55:05;;;;;;;21.07;8.38;;;;;;;19.50;61.02;101184.68;1725796;83;21244;-60
2021/07/26 02:58:11;;;;;;;13.32;7.60;;;;;;;19.47;61.01;101187.02;1725244;83;21221;-60
2021/07/26 03:01:19;;;;;;;18.92;8.58;;;;;;;19.50;60.81;101190.76;1725585;83;21375;-60
2021/07/26 03:04:27;;;;;;;16.10;8.10;;;;;;;19.53;60.80;101188.41;1726001;83;21876;-60
2021/07/26 03:07:37;;;;;;;16.02;8.80;;;;;;;19.55;60.62;101189.59;1732744;83;21355;-60
2021/07/26 03:10:39;;;;;;;15.28;8.50;;;;;;;19.57;60.80;101188.84;1725776;83;21363;-58
2021/07/26 03:13:50;;;;;;;19.35;8.80;;;;;;;19.56;60.92;101195.45;1725396;83;21907;-59
2021/07/26 03:16:55;;;;;;;18.62;8.03;;;;;;;19.61;61.18;101199.84;1725589;83;21718;-59
2021/07/26 03:20:02;;;;;;;14.33;7.50;;;;;;;19.66;61.00;101205.61;1725644;83;21367;-57
2021/07/26 03:23:11;;;;;;;21.30;7.83;;;;;;;19.69;60.96;101200.48;1733333;83;21416;-58
2021/07/26 03:26:17;;;;;;;15.30;7.85;;;;;;;19.76;60.74;101207.39;1660402;85;21293;-59
2021/07/26 03:29:23;;;;;;;16.20;7.62;;;;;;;19.82;60.65;101201.83;1725336;83;21402;-58
2021/07/26 03:32:29;;;;;;;17.98;7.50;;;;;;;19.87;60.65;101203.98;1725238;83;21197;-59
2021/07/26 03:35:34;;;;;;;18.98;8.70;;;;;;;19.95;60.75;101206.51;1725533;83;21217;-59
2021/07/26 03:38:40;;;;;;;12.30;7.55;;;;;;;20.01;60.79;101209.84;1735123;81;21382;-58
2021/07/26 03:41:45;;;;;;;18.75;7.92;;;;;;;20.12;60.80;101211.95;1762424;81;21362;-59
2021/07/26 03:44:50;;;;;;;18.10;8.10;;;;;;;20.20;60.77;101210.36;1762526;81;21366;-57
2021/07/26 03:47:59;;;;;;;22.50;8.13;;;;;;;20.28;60.27;101203.17;1762585;81;21950;-58
2021/07/26 03:51:05;;;;;;;18.20;7.87;;;;;;;20.34;60.25;101206.46;1762524;81;21438;-58
2021/07/26 03:54:11;;;;;;;20.27;7.17;;;;;;;20.44;60.38;101204.05;1762503;81;21307;-59
2021/07/26 03:57:17;;;;;;;17.48;7.83;;;;;;;20.53;60.12;101204.97;1762585;81;21320;-58
2021/07/26 04:00:25;;;;;;;20.60;8.10;;;;;;;20.60;59.96;101206.34;1762492;81;21359;-58
2021/07/26 04:03:32;;;;;;;14.87;7.47;;;;;;;20.66;59.86;101198.52;1762430;81;21892;-58
2021/07/26 04:06:40;;;;;;;19.02;7.65;;;;;;;20.76;59.92;101211.40;1762424;81;21371;-58
2021/07/26 04:09:48;;;;;;;16.42;7.60;;;;;;;20.86;59.64;101203.43;1762590;81;21342;-58
2021/07/26 04:12:53;;;;;;;22.02;8.50;;;;;;;20.95;59.69;101203.47;1762597;81;21376;-59
2021/07/26 04:16:00;;;;;;;18.27;7.87;;;;;;;21.07;59.39;101200.34;1762226;81;21189;-58
2021/07/26 04:19:06;;;;;;;23.10;7.37;;;;;;;21.19;59.10;101201.32;1762555;81;21354;-59
2021/07/26 04:22:11;;;;;;;16.80;6.67;;;;;;;21.34;58.19;101200.47;1762538;81;21339;-58
2021/07/26 04:25:18;;;;;;;13.15;6.67;;;;;;;21.47;57.66;101204.52;1762391;81;21367;-58
2021/07/26 04:28:24;;;;;;;16.95;6.67;;;;;;;21.60;57.08;101204.41;1743728;81;21804;-58
2021/07/26 04:31:30;;;;;;;14.05;6.25;;;;;;;21.72;56.88;101204.53;1762495;81;21272;-58
2021/07/26 04:34:36;;;;;;;12.20;6.37;;;;;;;21.84;56.67;101213.34;1762412;81;22008;-58
2021/07/26 04:37:42;;;;;;;10.08;6.00;;;;;;;21.96;56.48;101214.84;1762210;81;21315;-60
2021/07/26 04:40:48;;;;;;;12.35;6.62;;;;;;;22.07;56.27;101216.31;1764238;81;21374;-59
2021/07/26 04:43:55;;;;;;;13.32;6.30;;;;;;;22.18;55.99;101216.11;1769267;80;21295;-60
2021/07/26 04:47:00;;;;;;;14.68;6.70;;;;;;;22.29;55.92;101210.30;1749815;82;21229;-58
2021/07/26 04:50:06;;;;;;;14.20;6.62;;;;;;;22.39;55.61;101213.41;1761340;80;21667;-59
2021/07/26 04:53:11;;;;;;;11.45;5.35;;;;;;;22.49;54.96;101209.51;1756293;81;21327;-59
2021/07/26 04:56:16;;;;;;;11.75;6.03;;;;;;;22.57;54.98;101210.09;1756089;81;21657;-59
2021/07/26 04:59:21;;;;;;;9.58;5.67;;;;;;;22.67;54.82;101211.80;1742567;81;21181;-57
2021/07/26 05:02:26;;;;;;;12.00;6.60;;;;;;;22.77;54.68;101211.23;1740630;82;21249;-58
2021/07/26 05:05:31;;;;;;;10.53;5.80;;;;;;;22.88;54.47;101204.86;1720849;82;21375;-58
2021/07/26 05:08:37;;;;;;;12.05;6.33;;;;;;;22.99;54.31;101206.84;1758486;81;21303;-59
2021/07/26 05:11:44;;;;;;;9.53;6.25;;;;;;;23.08;54.01;101201.22;1756561;81;21785;-58
2021/07/26 05:14:53;;;;;;;10.35;6.15;;;;;;;23.15;53.87;101200.59;1743666;79;21226;-60
2021/07/26 05:18:00;;;;;;;12.50;6.20;;;;;;;23.28;53.86;101197.59;1766570;81;21967;-58
2021/07/26 05:21:06;;;;;;;10.13;5.85;;;;;;;23.37;53.40;101204.00;1766695;81;21692;-60
2021/07/26 05:24:11;;;;;;;10.55;5.85;;;;;;;23.47;53.14;101196.42;1747941;81;21245;-58
2021/07/26 05:27:16;;;;;;;12.58;5.60;;;;;;;23.57;52.99;101198.95;1753600;81;21790;-58
2021/07/26 05:30:22;;;;;;;8.20;5.30;;;;;;;23.67;52.89;101198.36;1758512;80;21350;-57
2021/07/26 05:33:28;;;;;;;9.68;6.08;;;;;;;23.78;52.21;101194.72;1721459;83;21379;-58
2021/07/26 05:36:34;;;;;;;10.25;5.72;;;;;;;23.89;52.10;101197.20;1737101;82;21242;-59
2021/07/26 05:39:39;;;;;;;10.60;5.65;;;;;;;24.00;51.93;101197.78;1744641;81;21380;-59
2021/07/26 05:42:44;;;;;;;8.48;5.40;;;;;;;24.09;51.52;101201.37;1734794;82;21305;-59
2021/07/26 05:45:52;;;;;;;16.87;4.87;;;;;;;24.20;51.34;101203.30;1736825;81;21375;-57
2021/07/26 05:48:59;;;;;;;9.23;4.83;;;;;;;24.31;50.92;101198.23;1705887;83;21297;-57
2021/07/26 05:52:05;;;;;;;9.53;5.40;;;;;;;24.41;50.52;101199.87;1720887;83;21375;-57
2021/07/26 05:55:10;;;;;;;9.93;4.78;;;;;;;24.51;50.25;101201.50;1721031;82;21947;-58
2021/07/26 05:58:15;;;;;;;11.83;5.17;;;;;;;24.62;50.04;101199.76;1721125;82;21364;-58
2021/07/26 06:01:36;;;;;;;9.98;5.30;;;;;;;24.70;49.31;101190.46;1742561;80;21224;-57
2021/07/26 06:04:32;;;;;;;13.85;5.55;;;;;;;24.79;49.52;101197.36;1744056;82;21332;-58
2021/07/26 06:07:38;;;;;;;11.20;5.15;;;;;;;24.89;49.35;101194.74;1743283;82;21216;-60
2021/07/26 06:10:44;;;;;;;9.13;4.70;;;;;;;25.00;49.30;101192.47;1753409;81;21580;-58
2021/07/26 06:13:53;;;;;;;11.97;5.05;;;;;;;25.10;48.85;101196.56;1768905;79;21692;-58
2021/07/26 06:17:01;;;;;;;9.20;4.92;;;;;;;25.19;48.88;101197.84;1772987;80;21216;-57
2021/07/26 06:20:06;;;;;;;12.07;5.28;;;;;;;25.30;48.64;101204.80;1770240;80;21182;-59
2021/07/26 06:23:12;;;;;;;13.83;5.55;;;;;;;25.40;48.63;101204.17;1772138;80;21212;-59
2021/07/26 06:26:17;;;;;;;9.95;5.22;;;;;;;25.50;48.84;101202.38;1768029;79;21206;-57
2021/07/26 06:29:24;;;;;;;10.00;5.10;;;;;;;25.61;48.49;101193.61;1769148;80;21241;-57
2021/07/26 06:32:32;;;;;;;7.30;4.55;;;;;;;25.70;47.85;101198.55;1771710;80;21990;-58
2021/07/26 06:35:37;;;;;;;8.93;5.00;;;;;;;25.80;47.68;101201.50;1766141;79;21201;-57
2021/07/26 06:38:42;;;;;;;10.10;5.10;;;;;;;25.90;47.46;101200.27;1770116;80;21694;-57
2021/07/26 06:41:49;;;;;;;10.38;4.72;;;;;;;25.98;46.76;101199.84;1761218;80;21688;-58
2021/07/26 06:44:56;;;;;;;9.80;4.37;;;;;;;26.06;46.54;101205.05;1763335;78;21229;-59
2021/07/26 06:48:02;;;;;;;6.85;4.50;;;;;;;26.16;46.04;101207.98;1786148;80;21507;-62
2021/07/26 06:51:13;;;;;;;9.05;4.72;;;;;;;26.25;45.76;101209.27;1734717;81;21401;-59
2021/07/26 06:54:19;;;;;;;11.68;5.30;;;;;;;26.36;45.81;101208.84;1769607;80;21194;-58
2021/07/26 06:57:28;;;;;;;7.50;4.30;;;;;;;26.46;46.02;101207.02;1772565;80;21174;-58
2021/07/26 07:00:33;;;;;;;11.78;4.70;;;;;;;26.57;45.68;101208.02;1769813;80;21205;-58
2021/07/26 07:03:39;;;;;;;7.12;4.08;;;;;;;26.66;45.53;101202.81;1756487;81;21185;-59
2021/07/26 07:06:45;;;;;;;8.95;4.25;;;;;;;26.76;45.66;101207.16;1756725;81;21711;-60
2021/07/26 07:09:51;;;;;;;8.85;5.67;;;;;;;26.86;45.38;101213.74;1757089;81;21817;-58
2021/07/26 07:12:58;;;;;;;7.60;5.10;;;;;;;26.95;44.99;101213.59;1749629;80;21186;-58
2021/07/26 07:16:03;;;;;;;7.50;4.70;;;;;;;27.05;44.07;101222.70;1767400;79;21216;-57
2021/07/26 07:19:10;;;;;;;8.28;4.75;;;;;;;27.14;43.97;101225.33;1769463;81;21209;-59
2021/07/26 07:22:16;;;;;;;6.12;4.12;;;;;;;27.19;43.04;101221.17;1764357;79;22209;-59
2021/07/26 07:25:25;;;;;;;9.38;4.67;;;;;;;27.24;43.04;101220.65;1769226;79;22095;-59
2021/07/26 07:28:32;;;;;;;5.25;3.98;;;;;;;27.31;42.85;101221.34;1773045;79;21241;-60
2021/07/26 07:31:40;;;;;;;8.95;4.37;;;;;;;27.41;42.94;101222.00;1772970;80;21205;-59
2021/07/26 07:34:50;;;;;;;8.80;4.25;;;;;;;27.52;43.01;101221.84;1770785;79;21204;-58
2021/07/26 07:37:55;;;;;;;6.45;3.92;;;;;;;27.62;42.64;101221.91;1772388;80;21308;-58
2021/07/26 07:41:00;;;;;;;6.60;4.20;;;;;;;27.70;42.13;101216.37;1756123;81;21377;-59
2021/07/26 07:44:07;;;;;;;6.50;4.37;;;;;;;27.76;41.80;101218.97;1766324;80;21216;-59
2021/07/26 07:47:14;;;;;;;8.43;4.22;;;;;;;27.83;41.64;101218.71;1765445;81;21196;-58
2021/07/26 07:50:24;;;;;;;6.05;4.20;;;;;;;27.89;41.13;101217.70;1770456;80;21399;-59
2021/07/26 07:53:28;;;;;;;8.30;4.20;;;;;;;27.95;41.55;101215.75;1749978;81;21826;-60
2021/07/26 07:56:34;;;;;;;11.93;4.25;;;;;;;28.01;41.58;101214.11;1761724;79;21402;-59
2021/07/26 07:59:42;;;;;;;8.40;4.25;;;;;;;28.10;41.37;101218.11;1748224;81;21299;-57
2021/07/26 08:02:47;;;;;;;8.40;4.10;;;;;;;28.17;41.21;101217.88;1734469;82;21215;-59
2021/07/26 08:05:55;;;;;;;8.40;4.58;;;;;;;28.22;40.55;101213.70;1734946;82;21247;-60
2021/07/26 08:09:04;;;;;;;5.42;3.90;;;;;;;28.27;40.47;101221.63;1735071;82;21240;-58
2021/07/26 08:12:13;;;;;;;8.80;4.20;;;;;;;28.35;40.60;101219.68;1735132;82;21251;-58
2021/07/26 08:15:21;;;;;;;6.87;3.85;;;;;;;28.40;40.33;101214.66;1735217;82;21228;-58
2021/07/26 08:18:28;;;;;;;8.15;4.12;;;;;;;28.47;39.76;101215.25;1734992;82;21259;-57
2021/07/26 08:21:35;;;;;;;8.30;4.40;;;;;;;28.51;39.51;101210.23;1734880;82;21271;-59
2021/07/26 08:24:42;;;;;;;9.45;5.17;;;;;;;28.56;38.99;101209.44;1735071;82;21220;-57
2021/07/26 08:28:02;;;;;;;10.55;4.75;;;;;;;28.61;38.28;101203.80;1735161;82;21709;-59
2021/07/26 08:31:09;;;;;;;8.10;4.30;;;;;;;28.66;38.13;101206.64;1759029;81;21218;-57
2021/07/26 08:34:16;;;;;;;8.80;3.72;;;;;;;28.69;36.63;101206.95;1771795;81;21702;-59
2021/07/26 08:37:23;;;;;;;7.00;4.05;;;;;;;28.70;36.69;101207.22;1771111;81;21340;-57
2021/07/26 08:40:34;;;;;;;10.68;3.90;;;;;;;28.76;37.09;101201.06;1771709;79;21265;-60
2021/07/26 08:43:42;;;;;;;5.58;3.90;;;;;;;28.82;36.65;101208.41;1747484;81;21431;-60
2021/07/26 08:46:50;;;;;;;9.05;3.98;;;;;;;28.89;35.69;101201.97;1767476;79;21353;-59
2021/07/26 08:49:58;;;;;;;10.25;4.55;;;;;;;28.99;35.61;101200.56;1774162;79;21690;-57
2021/07/26 08:53:05;;;;;;;7.15;3.87;;;;;;;29.10;35.60;101196.13;1781515;79;22188;-59
2021/07/26 08:56:27;;;;;;;6.53;3.90;;;;;;;29.17;34.84;101197.28;1773689;79;21370;-60
2021/07/26 08:59:32;;;;;;;8.48;4.00;;;;;;;29.25;34.71;101200.97;1764739;79;21366;-59
2021/07/26 09:02:41;;;;;;;6.03;3.98;;;;;;;29.33;34.44;101196.73;1764491;79;21717;-57
2021/07/26 09:05:49;;;;;;;7.25;4.33;;;;;;;29.42;35.06;101197.87;1766837;78;21324;-57
2021/07/26 09:09:01;;;;;;;9.70;4.22;;;;;;;29.50;34.88;101194.49;1768439;79;21208;-60
2021/07/26 09:12:07;;;;;;;8.70;4.58;;;;;;;29.58;34.75;101188.29;1756861;79;21197;-59
2021/07/26 09:15:31;;;;;;;7.22;4.08;;;;;;;29.63;34.98;101187.75;1764576;79;21196;-59
2021/07/26 09:18:38;;;;;;;8.53;4.35;;;;;;;29.73;35.36;101184.11;1748258;79;21180;-59
2021/07/26 09:22:03;;;;;;;9.55;4.70;;;;;;;29.81;35.15;101182.13;1770849;79;21255;-59
2021/07/26 09:25:29;;;;;;;6.08;4.17;;;;;;;29.89;34.96;101180.14;1788686;79;21271;-60
2021/07/26 09:28:40;;;;;;;9.13;4.25;;;;;;;29.94;34.51;101171.67;1803607;79;21718;-59
2021/07/26 09:32:05;;;;;;;9.80;4.30;;;;;;;29.99;34.49;101176.73;1773226;79;21464;-59
2021/07/26 09:35:13;;;;;;;9.13;4.97;;;;;;;30.08;34.47;101175.02;1781745;79;21342;-59
2021/07/26 09:38:19;;;;;;;8.73;3.95;;;;;;;30.20;34.92;101182.64;1766334;79;21181;-58
2021/07/26 09:41:53;;;;;;;9.55;4.90;;;;;;;30.34;34.26;101177.25;1804586;78;21267;-58
2021/07/26 09:44:59;;;;;;;6.20;4.28;;;;;;;30.43;33.66;101167.89;1804273;79;21362;-60
2021/07/26 09:48:15;;;;;;;9.98;4.65;;;;;;;30.52;32.65;101163.33;1777943;80;21776;-59
2021/07/26 09:51:24;;;;;;;6.53;4.25;;;;;;;30.56;32.86;101163.05;1762322;80;21847;-58
2021/07/26 09:54:31;;;;;;;7.47;4.33;;;;;;;30.65;33.37;101151.41;1714148;81;21723;-60
2021/07/26 09:57:42;;;;;;;7.20;4.75;;;;;;;30.80;33.40;101159.56;1718097;82;21212;-59
2021/07/26 10:00:52;;;;;;;9.03;4.75;;;;;;;30.94;33.65;101162.06;1756508;80;21539;-57
2021/07/26 10:04:06;;;;;;;6.90;4.20;;;;;;;31.08;33.15;101156.03;1714327;83;21364;-58
2021/07/26 10:07:26;;;;;;;13.35;4.20;;;;;;;31.19;32.30;101153.41;1696584;84;21397;-58
2021/07/26 10:10:51;;;;;;;7.97;4.35;;;;;;;31.28;32.68;101141.73;1694938;81;21268;-56
2021/07/26 10:14:26;;;;;;;6.20;4.37;;;;;;;31.43;32.62;101141.07;1706948;82;21312;-60
2021/07/26 10:17:35;;;;;;;6.45;4.08;;;;;;;31.46;32.29;101147.55;1765323;80;21375;-59
2021/07/26 10:21:12;;;;;;;9.38;4.62;;;;;;;31.35;31.69;101145.13;1764891;81;21911;-58
2021/07/26 10:24:21;;;;;;;5.87;4.08;;;;;;;31.22;31.57;101150.84;1732102;83;21425;-58
2021/07/26 10:27:29;;;;;;;13.05;4.28;;;;;;;31.16;32.02;101146.34;1734031;81;21932;-57
2021/07/26 10:30:42;;;;;;;7.17;5.20;;;;;;;31.29;31.69;101149.07;1724728;80;21281;-58
2021/07/26 10:34:19;;;;;;;8.00;4.22;;;;;;;31.42;31.52;101147.03;1748109;81;21728;-58
2021/07/26 10:37:48;;;;;;;5.97;4.17;;;;;;;31.46;30.86;101132.58;1746728;81;21305;-56
2021/07/26 10:40:56;;;;;;;8.23;4.55;;;;;;;31.55;30.83;101139.28;1728166;80;21257;-57
2021/07/26 10:44:03;;;;;;;6.80;4.15;;;;;;;31.58;30.72;101144.35;1767878;81;21193;-57
2021/07/26 10:47:19;;;;;;;7.30;4.30;;;;;;;31.48;31.19;101138.77;1703191;82;21315;-55
2021/07/26 10:50:27;;;;;;;6.92;4.70;;;;;;;31.51;31.48;101138.17;1663071;84;21297;-55
2021/07/26 10:53:50;;;;;;;7.37;4.87;;;;;;;31.66;30.99;101123.89;1682167;84;21636;-57
2021/07/26 10:57:13;;;;;;;7.30;4.22;;;;;;;31.86;30.08;101120.88;1693835;83;21296;-55
2021/07/26 11:00:24;;;;;;;7.93;4.43;;;;;;;32.09;30.34;101125.75;1715989;83;21393;-58
2021/07/26 11:03:50;;;;;;;5.50;4.03;;;;;;;32.27;30.33;101132.64;1681164;82;21303;-59
2021/07/26 11:07:08;;;;;;;10.82;4.83;;;;;;;32.45;30.46;101119.97;1678191;84;21221;-60
2021/07/26 11:10:17;;;;;;;6.15;4.45;;;;;;;32.68;30.14;101118.25;1733593;81;21383;-63
2021/07/26 11:13:25;;;;;;;10.78;4.42;;;;;;;32.86;29.52;101114.01;1731471;81;21802;-57
2021/07/26 11:17:08;;;;;;;6.87;4.10;;;;;;;33.08;29.58;101114.27;1732861;81;21383;-58
2021/07/26 11:20:07;;;;;;;7.47;4.25;;;;;;;33.23;28.89;101108.37;1658704;85;21293;-57
2021/07/26 11:23:13;;;;;;;9.20;4.47;;;;;;;33.38;28.17;101109.52;1655234;86;21240;-57
2021/07/26 11:26:34;;;;;;;15.23;4.40;;;;;;;33.47;28.69;101106.87;1654933;85;21390;-55
2021/07/26 11:29:44;;;;;;;7.00;4.12;;;;;;;33.55;28.19;101107.58;1632016;85;21378;-58
2021/07/26 11:33:01;;;;;;;9.08;4.28;;;;;;;33.50;28.26;101110.50;1654629;85;21734;-56
2021/07/26 11:36:22;;;;;;;9.20;4.40;;;;;;;33.56;28.22;101102.72;1702126;83;21280;-55
2021/07/26 11:39:29;;;;;;;7.53;4.37;;;;;;;33.68;28.84;101103.91;1714991;82;21232;-58
2021/07/26 11:42:37;;;;;;;8.63;4.70;;;;;;;33.69;28.56;101097.66;1731602;81;22222;-59
2021/07/26 11:45:47;;;;;;;7.12;4.25;;;;;;;33.71;28.12;101099.62;1714295;82;21230;-57
2021/07/26 11:49:04;;;;;;;10.53;3.95;;;;;;;33.80;27.67;101100.58;1726897;82;21233;-57
2021/07/26 11:52:17;;;;;;;8.10;4.20;;;;;;;33.84;27.78;101103.08;1736645;82;21202;-57
2021/07/26 11:55:26;;;;;;;8.65;4.20;;;;;;;33.88;27.96;101098.44;1736578;81;21865;-57
2021/07/26 11:58:39;;;;;;;9.38;4.00;;;;;;;33.95;27.72;101096.08;1725495;82;21408;-56
2021/07/26 12:01:47;;;;;;;7.65;3.75;;;;;;;34.01;27.90;101091.41;1741142;81;21268;-56
2021/07/26 12:04:53;;;;;;;9.48;4.35;;;;;;;33.96;26.99;101092.92;1741334;81;21374;-58
2021/07/26 12:08:00;;;;;;;6.30;3.80;;;;;;;33.69;27.21;101090.56;1741375;82;21189;-61
2021/07/26 12:11:24;;;;;;;10.23;3.98;;;;;;;33.35;27.09;101087.44;1741608;81;21405;-60
2021/07/26 12:14:38;;;;;;;8.80;4.15;;;;;;;32.96;27.91;101089.78;1741652;81;21264;-56
2021/07/26 12:17:45;;;;;;;;;;;;;;;32.57;27.77;101084.91;1744204;82;21991;-59
2021/07/26 12:21:06;;;;;;;6.47;3.77;;;;;;;32.28;28.15;101080.46;1723812;82;20613;-56
2021/07/26 12:24:59;;;;;;;8.55;3.58;;;;;;;32.16;28.58;101080.06;1740983;81;21401;-57
2021/07/26 12:28:09;;;;;;;4.90;3.62;;;;;;;32.17;28.67;101072.67;1738038;82;21346;-55
2021/07/26 12:31:36;;;;;;;4.72;3.50;;;;;;;32.08;28.27;101065.95;1725718;82;21442;-57
2021/07/26 12:34:44;;;;;;;8.88;4.45;;;;;;;32.04;28.31;101067.72;1736224;82;21919;-55
2021/07/26 12:38:16;;;;;;;6.12;4.15;;;;;;;31.97;29.07;101065.24;1721115;82;21739;-57
2021/07/26 12:41:21;;;;;;;4.33;3.50;;;;;;;31.94;29.08;101063.58;1656008;84;21251;-56
2021/07/26 12:44:35;;;;;;;6.92;3.62;;;;;;;31.91;29.33;101059.37;1698322;84;21404;-55
2021/07/26 12:47:45;;;;;;;5.65;3.65;;;;;;;31.93;29.01;101057.09;1688432;84;21268;-56
2021/07/26 12:50:57;;;;;;;5.05;3.90;;;;;;;31.97;29.28;101051.08;1678416;84;21961;-57
2021/07/26 12:54:19;;;;;;;7.17;3.72;;;;;;;32.05;29.51;101049.56;1692801;83;21801;-58
2021/07/26 12:57:27;;;;;;;5.53;3.75;;;;;;;32.11;29.95;101039.02;1680721;84;21203;-56
2021/07/26 13:00:37;;;;;;;9.58;3.65;;;;;;;32.18;28.94;101040.34;1690240;83;21389;-58
2021/07/26 13:03:45;;;;;;;7.42;4.15;;;;;;;32.17;29.05;101039.22;1743284;82;21344;-58
2021/07/26 13:06:52;;;;;;;6.08;3.60;;;;;;;32.16;29.30;101038.38;1720729;82;21335;-57
2021/07/26 13:09:59;;;;;;;5.80;3.62;;;;;;;32.16;28.58;101031.28;1714710;83;21457;-57
2021/07/26 13:13:04;;;;;;;5.67;3.67;;;;;;;32.15;29.06;101033.86;1715906;83;21216;-58
2021/07/26 13:16:09;;;;;;;6.42;3.83;;;;;;;32.15;28.06;101036.69;1709577;83;21274;-57
2021/07/26 13:19:16;;;;;;;7.17;3.58;;;;;;;32.09;27.74;101030.83;1702483;83;21227;-58
2021/07/26 13:22:24;;;;;;;7.83;3.95;;;;;;;32.05;28.38;101026.07;1710471;83;21219;-54
2021/07/26 13:25:33;;;;;;;5.65;3.80;;;;;;;32.11;28.68;101021.45;1718711;82;21263;-57
2021/07/26 13:28:39;;;;;;;5.17;3.60;;;;;;;32.12;29.12;101024.55;1706078;82;21176;-55
2021/07/26 13:31:44;;;;;;;8.78;3.83;;;;;;;32.14;28.89;101027.08;1725916;82;21287;-56
2021/07/26 13:34:53;;;;;;;5.58;3.50;;;;;;;32.12;29.08;101033.61;1710170;83;21788;-57
2021/07/26 13:38:02;;;;;;;6.33;3.77;;;;;;;32.15;29.00;101029.61;1709022;83;21748;-58
2021/07/26 13:41:09;;;;;;;7.58;4.20;;;;;;;32.21;29.22;101029.81;1703886;83;21280;-58
2021/07/26 13:44:16;;;;;;;8.33;4.20;;;;;;;32.22;28.90;101032.08;1710311;82;21322;-59
2021/07/26 13:47:22;;;;;;;5.55;4.00;;;;;;;32.21;28.51;101033.20;1710785;82;21384;-59
2021/07/26 13:50:31;;;;;;;7.95;4.85;;;;;;;32.19;28.77;101033.51;1720806;81;21212;-59
2021/07/26 13:53:39;;;;;;;11.80;4.25;;;;;;;32.23;28.71;101031.77;1731718;81;21953;-58
2021/07/26 13:56:47;;;;;;;4.78;3.98;;;;;;;32.29;28.52;101036.22;1717310;82;21531;-61
2021/07/26 13:59:54;;;;;;;7.90;4.55;;;;;;;32.29;27.11;101030.55;1729517;82;21285;-63
2021/07/26 14:03:05;;;;;;;8.68;4.20;;;;;;;32.24;27.55;101028.38;1735808;82;21358;-61
2021/07/26 14:06:11;;;;;;;8.63;4.25;;;;;;;32.22;27.85;101031.52;1734996;82;21383;-59
2021/07/26 14:09:18;;;;;;;6.33;4.03;;;;;;;32.20;28.05;101024.44;1735028;82;21836;-62
2021/07/26 14:12:29;;;;;;;7.95;3.80;;;;;;;32.18;28.22;101023.33;1723044;81;21215;-59
2021/07/26 14:15:35;;;;;;;8.18;4.50;;;;;;;32.19;28.06;101024.19;1721381;81;21214;-58
2021/07/26 14:18:40;;;;;;;8.03;4.20;;;;;;;32.23;28.02;101025.25;1757877;81;21188;-59
2021/07/26 14:21:49;;;;;;;7.50;4.12;;;;;;;32.27;28.08;101030.59;1728589;82;21737;-58
2021/07/26 14:24:57;;;;;;;6.87;3.75;;;;;;;32.23;26.90;101023.83;1751768;81;22063;-61
2021/07/26 14:28:02;;;;;;;11.05;3.80;;;;;;;32.15;27.36;101023.94;1742774;80;21798;-59
2021/07/26 14:31:08;;;;;;;6.55;3.75;;;;;;;32.15;27.62;101015.44;1757113;81;21197;-58
2021/07/26 14:34:14;;;;;;;8.08;4.12;;;;;;;32.18;28.11;101018.22;1755186;81;21173;-59
2021/07/26 14:37:22;;;;;;;6.10;3.33;;;;;;;32.19;27.93;101012.25;1758261;81;21740;-59
2021/07/26 14:40:29;;;;;;;6.37;3.52;;;;;;;32.19;28.33;101012.25;1752816;80;21142;-56